createdAt,value
2022-08-12T00:00:59.807Z,0.00
2022-08-12T00:02:03.696Z,0.00
2022-08-12T00:02:59.775Z,0.00
2022-08-12T00:03:59.737Z,0.00
2022-08-12T00:04:59.724Z,0.00
2022-08-12T00:06:04.865Z,0.00
2022-08-12T00:06:59.692Z,0.00
2022-08-12T00:07:59.680Z,0.00
2022-08-12T00:08:59.665Z,0.00
2022-08-12T00:09:59.653Z,0.00
2022-08-12T00:10:59.650Z,0.00
2022-08-12T00:11:59.620Z,0.00
2022-08-12T00:12:59.611Z,0.00
2022-08-12T00:13:59.586Z,0.00
2022-08-12T00:14:59.566Z,0.00
2022-08-12T00:15:59.558Z,0.00
2022-08-12T00:16:59.584Z,0.00
2022-08-12T00:17:59.526Z,0.00
2022-08-12T00:18:59.516Z,0.00
2022-08-12T00:19:59.500Z,0.00
2022-08-12T00:20:59.474Z,0.00
2022-08-12T00:21:59.488Z,0.00
2022-08-12T00:23:00.164Z,0.00
2022-08-12T00:23:59.430Z,0.00
2022-08-12T00:24:59.428Z,0.00
2022-08-12T00:26:21.630Z,0.00
2022-08-12T00:26:59.408Z,0.00
2022-08-12T00:27:59.389Z,0.00
2022-08-12T00:28:59.357Z,0.00
2022-08-12T00:29:59.337Z,0.00
2022-08-12T00:30:59.320Z,0.00
2022-08-12T00:32:00.295Z,0.00
2022-08-12T00:32:59.599Z,0.00
2022-08-12T00:33:59.294Z,0.00
2022-08-12T00:34:59.271Z,0.00
2022-08-12T00:35:59.238Z,0.00
2022-08-12T00:37:04.633Z,0.00
2022-08-12T00:37:59.214Z,0.00
2022-08-12T00:38:59.224Z,0.00
2022-08-12T00:39:59.201Z,0.00
2022-08-12T00:40:59.167Z,0.00
2022-08-12T00:41:59.146Z,0.00
2022-08-12T00:42:59.155Z,0.00
2022-08-12T00:43:59.128Z,0.00
2022-08-12T00:44:59.100Z,0.00
2022-08-12T00:45:59.107Z,0.00
2022-08-12T00:46:59.079Z,0.00
2022-08-12T00:47:59.060Z,0.00
2022-08-12T00:48:59.052Z,0.00
2022-08-12T00:49:59.073Z,0.00
2022-08-12T00:50:59.029Z,0.00
2022-08-12T00:51:58.989Z,0.00
2022-08-12T00:52:58.993Z,0.00
2022-08-12T00:53:58.951Z,0.00
2022-08-12T00:54:58.973Z,0.00
2022-08-12T00:55:58.942Z,0.00
2022-08-12T00:56:58.918Z,0.00
2022-08-12T00:57:58.894Z,0.00
2022-08-12T00:58:58.885Z,0.00
2022-08-12T00:59:58.871Z,0.00
2022-08-12T01:00:58.898Z,0.00
2022-08-12T01:02:04.265Z,0.00
2022-08-12T01:02:58.831Z,0.00
2022-08-12T01:03:59.456Z,0.00
2022-08-12T01:04:58.798Z,0.00
2022-08-12T01:05:58.784Z,0.00
2022-08-12T01:06:58.745Z,0.00
2022-08-12T01:07:58.733Z,0.00
2022-08-12T01:08:58.720Z,0.00
2022-08-12T01:09:58.702Z,0.00
2022-08-12T01:10:58.711Z,0.00
2022-08-12T01:11:58.690Z,0.00
2022-08-12T01:13:07.575Z,0.00
2022-08-12T01:13:58.649Z,0.00
2022-08-12T01:14:58.622Z,0.00
2022-08-12T01:15:58.603Z,0.00
2022-08-12T01:16:58.608Z,0.00
2022-08-12T01:17:58.582Z,0.00
2022-08-12T01:18:58.552Z,0.00
2022-08-12T01:19:58.553Z,0.00
2022-08-12T01:20:58.521Z,0.00
2022-08-12T01:21:58.522Z,0.00
2022-08-12T01:22:58.500Z,0.00
2022-08-12T01:23:58.485Z,0.00
2022-08-12T01:24:58.461Z,0.00
2022-08-12T01:25:58.434Z,0.00
2022-08-12T01:26:58.430Z,0.00
2022-08-12T01:27:58.406Z,0.00
2022-08-12T01:28:58.738Z,0.00
2022-08-12T01:29:58.376Z,0.00
2022-08-12T01:30:58.358Z,0.00
2022-08-12T01:31:58.336Z,0.00
2022-08-12T01:32:58.324Z,0.00
2022-08-12T01:33:58.305Z,0.00
2022-08-12T01:34:58.314Z,0.00
2022-08-12T01:36:08.531Z,0.00
2022-08-12T01:36:58.260Z,0.00
2022-08-12T01:37:58.252Z,0.00
2022-08-12T01:38:58.231Z,0.00
2022-08-12T01:40:33.684Z,0.00
2022-08-12T01:40:58.210Z,0.00
2022-08-12T01:41:58.176Z,0.00
2022-08-12T01:42:58.156Z,0.00
2022-08-12T01:43:58.144Z,0.00
2022-08-12T01:44:58.124Z,0.00
2022-08-12T01:45:58.128Z,0.00
2022-08-12T01:46:58.094Z,0.00
2022-08-12T01:47:58.084Z,0.00
2022-08-12T01:48:58.063Z,0.00
2022-08-12T01:49:58.070Z,0.00
2022-08-12T01:51:01.239Z,0.00
2022-08-12T01:52:20.664Z,0.00
2022-08-12T01:52:58.000Z,0.00
2022-08-12T01:53:58.004Z,0.00
2022-08-12T01:54:57.984Z,0.00
2022-08-12T01:55:57.970Z,0.00
2022-08-12T01:56:57.929Z,0.00
2022-08-12T01:58:01.396Z,0.00
2022-08-12T01:58:57.897Z,0.00
2022-08-12T01:59:57.882Z,0.00
2022-08-12T02:00:57.935Z,0.00
2022-08-12T02:01:57.897Z,0.00
2022-08-12T02:02:57.833Z,0.00
2022-08-12T02:03:57.818Z,0.00
2022-08-12T02:04:57.799Z,0.00
2022-08-12T02:05:57.823Z,0.00
2022-08-12T02:06:57.766Z,0.00
2022-08-12T02:07:57.769Z,0.00
2022-08-12T02:08:57.733Z,0.00
2022-08-12T02:09:57.718Z,0.00
2022-08-12T02:10:57.701Z,0.00
2022-08-12T02:11:58.837Z,0.00
2022-08-12T02:12:57.667Z,0.00
2022-08-12T02:13:57.656Z,0.00
2022-08-12T02:14:57.673Z,0.00
2022-08-12T02:15:57.627Z,0.00
2022-08-12T02:16:57.600Z,0.00
2022-08-12T02:17:57.608Z,0.00
2022-08-12T02:18:57.566Z,0.00
2022-08-12T02:19:57.549Z,0.00
2022-08-12T02:20:57.556Z,0.00
2022-08-12T02:21:57.513Z,0.00
2022-08-12T02:22:57.508Z,0.00
2022-08-12T02:23:57.489Z,0.00
2022-08-12T02:24:57.466Z,0.00
2022-08-12T02:25:57.465Z,0.00
2022-08-12T02:26:57.446Z,0.00
2022-08-12T02:27:57.416Z,0.00
2022-08-12T02:28:57.399Z,0.00
2022-08-12T02:29:57.407Z,0.00
2022-08-12T02:30:57.365Z,0.00
2022-08-12T02:31:57.345Z,0.00
2022-08-12T02:32:57.338Z,0.00
2022-08-12T02:33:57.314Z,0.00
2022-08-12T02:34:57.298Z,0.00
2022-08-12T02:35:57.298Z,0.00
2022-08-12T02:36:57.562Z,0.00
2022-08-12T02:37:57.257Z,0.00
2022-08-12T02:38:57.228Z,0.00
2022-08-12T02:39:57.251Z,0.00
2022-08-12T02:40:57.212Z,0.00
2022-08-12T02:41:57.182Z,0.00
2022-08-12T02:42:57.185Z,0.00
2022-08-12T02:43:57.146Z,0.00
2022-08-12T02:44:57.135Z,0.00
2022-08-12T02:45:57.114Z,0.00
2022-08-12T02:46:57.090Z,0.00
2022-08-12T02:47:59.770Z,0.00
2022-08-12T02:48:57.081Z,0.00
2022-08-12T02:49:57.053Z,0.00
2022-08-12T02:50:57.025Z,0.00
2022-08-12T02:51:57.009Z,0.00
2022-08-12T02:52:57.018Z,0.00
2022-08-12T02:54:04.365Z,0.00
2022-08-12T02:54:56.956Z,0.00
2022-08-12T02:55:56.942Z,0.00
2022-08-12T02:56:56.925Z,0.00
2022-08-12T02:57:56.924Z,0.00
2022-08-12T02:58:56.906Z,0.00
2022-08-12T02:59:56.876Z,0.00
2022-08-12T03:00:57.044Z,0.00
2022-08-12T03:01:56.842Z,0.00
2022-08-12T03:02:56.821Z,0.00
2022-08-12T03:03:56.813Z,0.00
2022-08-12T03:04:56.803Z,0.00
2022-08-12T03:05:56.779Z,0.00
2022-08-12T03:06:56.752Z,0.00
2022-08-12T03:08:00.054Z,0.00
2022-08-12T03:08:56.721Z,0.00
2022-08-12T03:10:04.351Z,0.00
2022-08-12T03:10:56.848Z,0.00
2022-08-12T03:11:56.761Z,0.00
2022-08-12T03:12:56.654Z,0.00
2022-08-12T03:13:56.639Z,0.00
2022-08-12T03:14:56.636Z,0.00
2022-08-12T03:15:56.601Z,0.00
2022-08-12T03:16:56.606Z,0.00
2022-08-12T03:18:25.549Z,0.00
2022-08-12T03:18:56.570Z,0.00
2022-08-12T03:20:09.853Z,0.00
2022-08-12T03:20:56.548Z,0.00
2022-08-12T03:22:09.122Z,0.00
2022-08-12T03:22:56.485Z,0.00
2022-08-12T03:23:56.464Z,0.00
2022-08-12T03:24:56.450Z,0.00
2022-08-12T03:25:56.438Z,0.00
2022-08-12T03:27:00.427Z,0.00
2022-08-12T03:27:56.401Z,0.00
2022-08-12T03:28:56.379Z,0.00
2022-08-12T03:29:56.364Z,0.00
2022-08-12T03:30:56.943Z,0.00
2022-08-12T03:31:56.351Z,0.00
2022-08-12T03:32:56.310Z,0.00
2022-08-12T03:34:01.402Z,0.00
2022-08-12T03:34:56.277Z,0.00
2022-08-12T03:35:56.260Z,0.00
2022-08-12T03:36:56.264Z,0.00
2022-08-12T03:37:56.229Z,0.00
2022-08-12T03:38:56.211Z,0.00
2022-08-12T03:39:56.259Z,0.00
2022-08-12T03:40:56.181Z,0.00
2022-08-12T03:41:57.921Z,0.00
2022-08-12T03:42:56.142Z,0.00
2022-08-12T03:43:56.127Z,0.00
2022-08-12T03:44:56.124Z,0.00
2022-08-12T03:45:56.804Z,0.00
2022-08-12T03:46:56.090Z,4.00
2022-08-12T03:47:56.072Z,4.00
2022-08-12T03:48:56.040Z,0.00
2022-08-12T03:49:56.021Z,0.00
2022-08-12T03:50:56.019Z,4.00
2022-08-12T03:51:55.990Z,0.00
2022-08-12T03:52:55.967Z,4.00
2022-08-12T03:53:55.953Z,4.00
2022-08-12T03:54:55.954Z,4.00
2022-08-12T03:55:55.919Z,4.00
2022-08-12T03:56:55.918Z,4.00
2022-08-12T03:57:55.894Z,8.00
2022-08-12T03:58:55.865Z,8.00
2022-08-12T03:59:55.853Z,4.00
2022-08-12T04:00:55.917Z,8.00
2022-08-12T04:01:55.814Z,12.00
2022-08-12T04:02:55.807Z,12.00
2022-08-12T04:03:55.786Z,12.00
2022-08-12T04:04:55.783Z,12.00
2022-08-12T04:05:56.777Z,16.00
2022-08-12T04:06:55.731Z,16.00
2022-08-12T04:07:58.093Z,20.00
2022-08-12T04:08:55.697Z,24.00
2022-08-12T04:09:55.683Z,24.00
2022-08-12T04:10:55.681Z,28.00
2022-08-12T04:11:55.641Z,28.00
2022-08-12T04:12:55.634Z,32.00
2022-08-12T04:13:55.607Z,36.00
2022-08-12T04:14:55.598Z,40.00
2022-08-12T04:15:55.574Z,40.00
2022-08-12T04:16:55.591Z,44.00
2022-08-12T04:18:07.597Z,48.00
2022-08-12T04:18:55.527Z,52.00
2022-08-12T04:19:55.510Z,56.00
2022-08-12T04:20:55.499Z,60.00
2022-08-12T04:22:03.062Z,64.00
2022-08-12T04:22:55.536Z,72.00
2022-08-12T04:23:55.501Z,76.00
2022-08-12T04:24:55.426Z,80.00
2022-08-12T04:25:55.406Z,80.00
2022-08-12T04:26:55.392Z,88.00
2022-08-12T04:27:55.373Z,92.00
2022-08-12T04:28:55.384Z,100.00
2022-08-12T04:30:17.243Z,104.00
2022-08-12T04:30:55.323Z,108.00
2022-08-12T04:31:55.300Z,116.00
2022-08-12T04:32:55.298Z,124.00
2022-08-12T04:33:55.303Z,132.00
2022-08-12T04:34:55.274Z,136.00
2022-08-12T04:35:55.232Z,144.00
2022-08-12T04:36:55.219Z,152.00
2022-08-12T04:37:58.451Z,156.00
2022-08-12T04:38:59.442Z,168.00
2022-08-12T04:39:55.264Z,176.00
2022-08-12T04:40:55.171Z,180.00
2022-08-12T04:41:58.451Z,188.00
2022-08-12T04:42:55.113Z,192.00
2022-08-12T04:44:02.089Z,200.00
2022-08-12T04:44:55.077Z,204.00
2022-08-12T04:45:55.100Z,208.00
2022-08-12T04:46:55.046Z,216.00
2022-08-12T04:47:55.029Z,224.00
2022-08-12T04:48:55.016Z,228.00
2022-08-12T04:49:55.055Z,232.00
2022-08-12T04:50:55.087Z,236.00
2022-08-12T04:51:59.051Z,240.00
2022-08-12T04:52:54.946Z,244.00
2022-08-12T04:53:54.936Z,248.00
2022-08-12T04:54:55.027Z,252.00
2022-08-12T04:55:54.924Z,256.00
2022-08-12T04:57:03.071Z,264.00
2022-08-12T04:57:54.898Z,264.00
2022-08-12T04:58:54.850Z,272.00
2022-08-12T04:59:54.883Z,280.00
2022-08-12T05:00:54.868Z,284.00
2022-08-12T05:01:54.996Z,288.00
2022-08-12T05:02:54.847Z,296.00
2022-08-12T05:03:54.762Z,296.00
2022-08-12T05:04:54.808Z,300.00
2022-08-12T05:05:54.753Z,304.00
2022-08-12T05:06:54.716Z,312.00
2022-08-12T05:07:55.280Z,316.00
2022-08-12T05:08:54.721Z,324.00
2022-08-12T05:09:59.058Z,324.00
2022-08-12T05:10:54.648Z,332.00
2022-08-12T05:11:54.653Z,336.00
2022-08-12T05:12:54.686Z,340.00
2022-08-12T05:13:54.591Z,348.00
2022-08-12T05:14:54.587Z,352.00
2022-08-12T05:16:05.179Z,356.00
2022-08-12T05:16:54.598Z,360.00
2022-08-12T05:17:54.573Z,364.00
2022-08-12T05:18:54.508Z,368.00
2022-08-12T05:19:54.540Z,372.00
2022-08-12T05:20:54.476Z,376.00
2022-08-12T05:21:54.481Z,380.00
2022-08-12T05:22:57.960Z,384.00
2022-08-12T05:23:54.577Z,388.00
2022-08-12T05:24:54.413Z,392.00
2022-08-12T05:25:54.390Z,396.00
2022-08-12T05:26:54.413Z,400.00
2022-08-12T05:27:57.954Z,404.00
2022-08-12T05:28:54.361Z,408.00
2022-08-12T05:30:06.407Z,408.00
2022-08-12T05:30:54.364Z,412.00
2022-08-12T05:31:54.393Z,416.00
2022-08-12T05:32:54.283Z,424.00
2022-08-12T05:33:54.285Z,424.00
2022-08-12T05:34:54.243Z,428.00
2022-08-12T05:35:54.231Z,432.00
2022-08-12T05:36:54.419Z,436.00
2022-08-12T05:37:54.201Z,436.00
2022-08-12T05:38:54.176Z,444.00
2022-08-12T05:39:54.199Z,448.00
2022-08-12T05:40:54.273Z,452.00
2022-08-12T05:41:54.134Z,452.00
2022-08-12T05:42:54.128Z,456.00
2022-08-12T05:43:54.120Z,460.00
2022-08-12T05:44:54.202Z,464.00
2022-08-12T05:45:54.082Z,468.00
2022-08-12T05:46:54.060Z,468.00
2022-08-12T05:47:54.452Z,472.00
2022-08-12T05:48:54.023Z,472.00
2022-08-12T05:49:53.997Z,476.00
2022-08-12T05:50:54.001Z,480.00
2022-08-12T05:51:53.989Z,484.00
2022-08-12T05:52:54.097Z,488.00
2022-08-12T05:53:53.970Z,488.00
2022-08-12T05:54:57.849Z,488.00
2022-08-12T05:55:53.900Z,492.00
2022-08-12T05:56:53.884Z,492.00
2022-08-12T05:57:53.871Z,496.00
2022-08-12T05:58:53.889Z,500.00
2022-08-12T05:59:53.841Z,512.00
2022-08-12T06:00:53.845Z,508.00
2022-08-12T06:02:09.254Z,504.00
2022-08-12T06:02:53.833Z,508.00
2022-08-12T06:03:53.774Z,508.00
2022-08-12T06:04:53.848Z,512.00
2022-08-12T06:05:55.570Z,512.00
2022-08-12T06:06:53.841Z,516.00
2022-08-12T06:08:01.258Z,520.00
2022-08-12T06:08:53.764Z,520.00
2022-08-12T06:09:53.782Z,516.00
2022-08-12T06:10:53.739Z,508.00
2022-08-12T06:12:05.230Z,516.00
2022-08-12T06:12:53.627Z,520.00
2022-08-12T06:13:54.746Z,524.00
2022-08-12T06:14:53.607Z,528.00
2022-08-12T06:15:53.579Z,528.00
2022-08-12T06:16:53.689Z,528.00
2022-08-12T06:17:53.648Z,528.00
2022-08-12T06:18:53.548Z,536.00
2022-08-12T06:20:27.355Z,544.00
2022-08-12T06:20:53.860Z,540.00
2022-08-12T06:21:53.577Z,548.00
2022-08-12T06:22:54.597Z,548.00
2022-08-12T06:23:53.529Z,552.00
2022-08-12T06:24:53.493Z,556.00
2022-08-12T06:25:53.429Z,556.00
2022-08-12T06:26:53.426Z,560.00
2022-08-12T06:28:07.606Z,564.00
2022-08-12T06:28:53.396Z,568.00
2022-08-12T06:30:08.847Z,568.00
2022-08-12T06:31:22.147Z,568.00
2022-08-12T06:31:53.335Z,568.00
2022-08-12T06:33:18.590Z,568.00
2022-08-12T06:33:59.774Z,568.00
2022-08-12T06:35:27.249Z,576.00
2022-08-12T06:35:57.534Z,576.00
2022-08-12T06:36:53.251Z,576.00
2022-08-12T06:37:56.982Z,580.00
2022-08-12T06:38:53.244Z,584.00
2022-08-12T06:39:53.235Z,584.00
2022-08-12T06:40:53.207Z,584.00
2022-08-12T06:42:10.671Z,584.00
2022-08-12T06:42:53.159Z,588.00
2022-08-12T06:44:04.406Z,592.00
2022-08-12T06:44:53.135Z,592.00
2022-08-12T06:45:53.128Z,592.00
2022-08-12T06:46:53.115Z,592.00
2022-08-12T06:47:53.084Z,600.00
2022-08-12T06:48:53.075Z,596.00
2022-08-12T06:49:53.052Z,600.00
2022-08-12T06:50:53.064Z,604.00
2022-08-12T06:51:54.491Z,600.00
2022-08-12T06:52:53.026Z,608.00
2022-08-12T06:53:53.004Z,608.00
2022-08-12T06:54:52.980Z,612.00
2022-08-12T06:55:58.585Z,612.00
2022-08-12T06:58:05.701Z,612.00
2022-08-12T06:58:06.588Z,612.00
2022-08-12T06:58:52.940Z,620.00
2022-08-12T06:59:52.904Z,620.00
2022-08-12T07:00:52.959Z,628.00
2022-08-12T07:01:52.874Z,628.00
2022-08-12T07:02:52.872Z,628.00
2022-08-12T07:03:52.866Z,632.00
2022-08-12T07:04:52.851Z,640.00
2022-08-12T07:05:52.830Z,636.00
2022-08-12T07:06:52.799Z,636.00
2022-08-12T07:07:52.803Z,636.00
2022-08-12T07:08:52.778Z,636.00
2022-08-12T07:10:04.421Z,640.00
2022-08-12T07:10:52.741Z,640.00
2022-08-12T07:11:52.726Z,644.00
2022-08-12T07:12:52.746Z,644.00
2022-08-12T07:14:11.425Z,652.00
2022-08-12T07:14:52.715Z,652.00
2022-08-12T07:15:52.691Z,652.00
2022-08-12T07:16:52.659Z,648.00
2022-08-12T07:17:52.649Z,652.00
2022-08-12T07:18:52.670Z,656.00
2022-08-12T07:19:52.616Z,656.00
2022-08-12T07:20:53.473Z,656.00
2022-08-12T07:21:59.947Z,656.00
2022-08-12T07:22:52.572Z,660.00
2022-08-12T07:23:52.558Z,660.00
2022-08-12T07:24:52.566Z,664.00
2022-08-12T07:25:56.492Z,672.00
2022-08-12T07:26:52.518Z,668.00
2022-08-12T07:27:52.665Z,672.00
2022-08-12T07:28:52.490Z,676.00
2022-08-12T07:29:58.126Z,680.00
2022-08-12T07:30:52.480Z,684.00
2022-08-12T07:31:52.456Z,684.00
2022-08-12T07:32:52.435Z,688.00
2022-08-12T07:33:52.423Z,684.00
2022-08-12T07:34:52.403Z,688.00
2022-08-12T07:35:52.409Z,688.00
2022-08-12T07:36:52.379Z,692.00
2022-08-12T07:37:52.362Z,692.00
2022-08-12T07:38:52.356Z,696.00
2022-08-12T07:39:59.683Z,700.00
2022-08-12T07:40:52.573Z,704.00
2022-08-12T07:41:52.308Z,712.00
2022-08-12T07:42:52.282Z,712.00
2022-08-12T07:43:52.273Z,720.00
2022-08-12T07:44:52.338Z,724.00
2022-08-12T07:45:52.317Z,728.00
2022-08-12T07:46:52.249Z,732.00
2022-08-12T07:47:52.215Z,736.00
2022-08-12T07:48:52.205Z,688.00
2022-08-12T07:50:04.909Z,688.00
2022-08-12T07:50:52.176Z,704.00
2022-08-12T07:51:52.169Z,704.00
2022-08-12T07:52:52.150Z,704.00
2022-08-12T07:54:00.547Z,704.00
2022-08-12T07:54:52.158Z,712.00
2022-08-12T07:55:52.132Z,720.00
2022-08-12T07:56:52.129Z,724.00
2022-08-12T07:57:52.109Z,724.00
2022-08-12T07:58:52.063Z,728.00
2022-08-12T07:59:55.574Z,740.00
2022-08-12T08:00:52.038Z,740.00
2022-08-12T08:01:52.388Z,760.00
2022-08-12T08:02:52.021Z,764.00
2022-08-12T08:03:51.992Z,768.00
2022-08-12T08:04:51.990Z,764.00
2022-08-12T08:05:52.046Z,768.00
2022-08-12T08:06:51.961Z,768.00
2022-08-12T08:07:52.076Z,776.00
2022-08-12T08:08:51.942Z,788.00
2022-08-12T08:09:58.706Z,796.00
2022-08-12T08:10:51.980Z,804.00
2022-08-12T08:11:51.918Z,812.00
2022-08-12T08:12:52.736Z,816.00
2022-08-12T08:13:51.984Z,796.00
2022-08-12T08:14:51.983Z,792.00
2022-08-12T08:16:03.165Z,800.00
2022-08-12T08:16:51.825Z,792.00
2022-08-12T08:17:51.835Z,800.00
2022-08-12T08:18:51.798Z,804.00
2022-08-12T08:20:03.081Z,808.00
2022-08-12T08:20:51.801Z,812.00
2022-08-12T08:21:51.761Z,812.00
2022-08-12T08:22:52.022Z,884.00
2022-08-12T08:23:55.571Z,892.00
2022-08-12T08:24:51.730Z,900.00
2022-08-12T08:25:51.811Z,908.00
2022-08-12T08:26:51.703Z,904.00
2022-08-12T08:27:51.686Z,908.00
2022-08-12T08:28:51.691Z,904.00
2022-08-12T08:29:51.657Z,908.00
2022-08-12T08:30:51.665Z,920.00
2022-08-12T08:31:51.630Z,920.00
2022-08-12T08:32:51.613Z,920.00
2022-08-12T08:34:04.733Z,932.00
2022-08-12T08:34:53.707Z,936.00
2022-08-12T08:35:54.272Z,940.00
2022-08-12T08:36:51.719Z,952.00
2022-08-12T08:37:51.553Z,956.00
2022-08-12T08:38:58.298Z,968.00
2022-08-12T08:39:51.623Z,972.00
2022-08-12T08:40:51.599Z,980.00
2022-08-12T08:42:16.165Z,988.00
2022-08-12T08:42:51.669Z,1000.00
2022-08-12T08:43:51.490Z,1008.00
2022-08-12T08:44:58.078Z,1016.00
2022-08-12T08:45:51.459Z,1028.00
2022-08-12T08:46:51.452Z,1040.00
2022-08-12T08:47:51.421Z,1048.00
2022-08-12T08:48:51.409Z,1052.00
2022-08-12T08:49:51.397Z,1064.00
2022-08-12T08:51:04.334Z,1080.00
2022-08-12T08:51:51.423Z,1088.00
2022-08-12T08:52:51.358Z,1108.00
2022-08-12T08:53:51.909Z,1132.00
2022-08-12T08:54:51.333Z,1120.00
2022-08-12T08:56:04.522Z,1140.00
2022-08-12T08:56:51.330Z,1164.00
2022-08-12T08:57:51.313Z,1164.00
2022-08-12T08:58:51.284Z,1184.00
2022-08-12T08:59:51.657Z,1196.00
2022-08-12T09:00:51.280Z,1196.00
2022-08-12T09:01:51.333Z,1216.00
2022-08-12T09:02:59.179Z,1252.00
2022-08-12T09:05:08.252Z,1276.00
2022-08-12T09:05:12.657Z,1276.00
2022-08-12T09:06:02.045Z,1284.00
2022-08-12T09:06:53.720Z,1316.00
2022-08-12T09:08:11.938Z,1332.00
2022-08-12T09:08:51.164Z,1372.00
2022-08-12T09:10:02.398Z,1292.00
2022-08-12T09:10:53.295Z,1364.00
2022-08-12T09:12:07.414Z,1408.00
2022-08-12T09:12:54.120Z,1436.00
2022-08-12T09:14:51.485Z,1480.00
2022-08-12T09:15:56.007Z,1500.00
2022-08-12T09:16:51.263Z,1504.00
2022-08-12T09:17:51.129Z,1540.00
2022-08-12T09:18:52.589Z,1632.00
2022-08-12T09:19:56.877Z,1644.00
2022-08-12T09:20:51.062Z,1848.00
2022-08-12T09:21:54.501Z,2216.00
2022-08-12T09:22:51.205Z,2212.00
2022-08-12T09:23:59.128Z,2396.00
2022-08-12T09:24:51.012Z,3184.00
2022-08-12T09:29:15.409Z,10960.00
2022-08-12T09:30:15.087Z,8704.00
2022-08-12T09:32:03.817Z,10520.00
2022-08-12T09:32:31.540Z,12192.00
2022-08-12T09:33:19.307Z,13996.00
2022-08-12T09:34:25.523Z,14752.00
2022-08-12T09:35:18.482Z,15808.00
2022-08-12T09:36:15.012Z,17216.00
2022-08-12T09:37:19.420Z,16672.00
2022-08-12T09:38:28.097Z,18720.00
2022-08-12T09:40:00.827Z,16320.00
2022-08-12T09:41:01.739Z,15904.00
2022-08-12T09:42:33.420Z,17472.00
2022-08-12T09:42:40.434Z,18464.00
2022-08-12T09:43:16.713Z,20448.00
2022-08-12T09:44:39.250Z,20960.00
2022-08-12T09:45:19.327Z,21312.00
2022-08-12T09:46:22.347Z,21120.00
2022-08-12T09:47:14.879Z,21248.00
2022-08-12T09:48:19.871Z,20832.00
2022-08-12T09:49:16.352Z,19840.00
2022-08-12T09:50:20.271Z,18464.00
2022-08-12T09:51:17.221Z,19968.00
2022-08-12T09:52:14.853Z,20256.00
2022-08-12T09:53:15.827Z,19328.00
2022-08-12T09:54:33.358Z,19584.00
2022-08-12T09:56:05.878Z,19680.00
2022-08-12T09:56:58.451Z,19136.00
2022-08-12T09:58:47.027Z,17056.00
2022-08-12T09:58:56.620Z,18496.00
2022-08-12T09:59:14.784Z,19072.00
2022-08-12T10:00:26.083Z,17888.00
2022-08-12T10:01:23.409Z,16416.00
2022-08-12T10:02:52.945Z,13160.00
2022-08-12T10:03:32.189Z,17856.00
2022-08-12T10:04:14.949Z,10588.00
2022-08-12T10:05:17.894Z,12092.00
2022-08-12T10:06:26.906Z,12916.00
2022-08-12T10:07:22.989Z,16000.00
2022-08-12T10:08:14.721Z,10540.00
2022-08-12T10:09:14.738Z,8192.00
2022-08-12T10:10:24.598Z,8060.00
2022-08-12T10:11:18.570Z,7540.00
2022-08-12T10:12:14.695Z,12376.00
2022-08-12T10:13:17.103Z,7436.00
2022-08-12T10:14:14.712Z,5452.00
2022-08-12T10:15:15.175Z,19552.00
2022-08-12T10:16:18.541Z,20512.00
2022-08-12T10:17:14.670Z,20256.00
2022-08-12T10:18:14.676Z,21632.00
2022-08-12T10:19:16.965Z,20544.00
2022-08-12T10:20:14.656Z,19808.00
2022-08-12T10:21:14.678Z,21536.00
2022-08-12T10:22:16.895Z,21504.00
2022-08-12T10:23:14.639Z,21888.00
2022-08-12T10:24:14.634Z,21856.00
2022-08-12T10:25:16.397Z,22272.00
2022-08-12T10:26:35.119Z,22304.00
2022-08-12T10:27:15.845Z,22592.00
2022-08-12T10:28:24.855Z,21888.00
2022-08-12T10:30:01.081Z,21792.00
2022-08-12T10:30:42.092Z,21824.00
2022-08-12T10:31:15.998Z,21216.00
2022-08-12T10:32:21.651Z,20896.00
2022-08-12T10:33:18.204Z,17824.00
2022-08-12T10:34:25.885Z,20960.00
2022-08-12T10:35:14.602Z,11464.00
2022-08-12T10:36:14.575Z,14016.00
2022-08-12T10:37:58.166Z,11248.00
2022-08-12T10:38:34.507Z,10964.00
2022-08-12T10:40:01.131Z,9860.00
2022-08-12T10:40:20.032Z,9828.00
2022-08-12T10:41:19.071Z,9940.00
2022-08-12T10:42:14.573Z,9984.00
2022-08-12T10:43:16.719Z,9720.00
2022-08-12T10:44:17.481Z,11060.00
2022-08-12T10:45:18.280Z,11976.00
2022-08-12T10:46:14.567Z,17088.00
2022-08-12T10:47:26.615Z,20672.00
2022-08-12T10:48:21.979Z,22560.00
2022-08-12T10:50:10.499Z,20800.00
2022-08-12T10:50:33.901Z,18176.00
2022-08-12T10:52:02.850Z,15744.00
2022-08-12T10:52:47.124Z,22944.00
2022-08-12T10:53:19.572Z,9324.00
2022-08-12T10:54:14.515Z,8620.00
2022-08-12T10:55:14.488Z,8228.00
2022-08-12T10:56:14.499Z,7912.00
2022-08-12T10:57:18.557Z,8140.00
2022-08-12T10:58:28.363Z,10304.00
2022-08-12T10:59:14.460Z,10568.00
2022-08-12T11:00:34.161Z,12544.00
2022-08-12T11:01:49.575Z,11568.00
2022-08-12T11:04:19.619Z,13912.00
2022-08-12T11:04:23.264Z,11184.00
2022-08-12T11:04:37.177Z,21696.00
2022-08-12T11:07:03.071Z,11496.00
2022-08-12T11:07:08.652Z,10452.00
2022-08-12T11:08:34.897Z,15072.00
2022-08-12T11:08:38.073Z,22080.00
2022-08-12T11:09:14.487Z,8264.00
2022-08-12T11:10:14.490Z,17600.00
2022-08-12T11:11:16.696Z,8408.00
2022-08-12T11:12:56.115Z,13444.00
2022-08-12T11:13:14.393Z,12508.00
2022-08-12T11:14:49.515Z,12860.00
2022-08-12T11:15:19.286Z,18304.00
2022-08-12T11:16:22.175Z,26656.00
2022-08-12T11:17:43.198Z,16096.00
2022-08-12T11:18:18.386Z,7304.00
2022-08-12T11:19:14.356Z,7336.00
2022-08-12T11:20:15.105Z,5140.00
2022-08-12T11:21:15.909Z,5192.00
2022-08-12T11:22:14.400Z,6188.00
2022-08-12T11:23:25.190Z,6024.00
2022-08-12T11:24:30.276Z,5400.00
2022-08-12T11:25:14.347Z,15808.00
2022-08-12T11:26:14.326Z,11020.00
2022-08-12T11:27:14.317Z,15136.00
2022-08-12T11:28:14.584Z,12816.00
2022-08-12T11:29:22.533Z,8156.00
2022-08-12T11:30:31.529Z,12340.00
2022-08-12T11:31:14.725Z,14304.00
2022-08-12T11:32:14.321Z,10520.00
2022-08-12T11:33:24.074Z,10116.00
2022-08-12T11:34:53.780Z,12184.00
2022-08-12T11:35:14.276Z,12708.00
2022-08-12T11:36:14.620Z,27936.00
2022-08-12T11:37:25.795Z,23936.00
2022-08-12T11:38:14.227Z,26528.00
2022-08-12T11:39:14.246Z,34592.00
2022-08-12T11:40:14.226Z,25440.00
2022-08-12T11:41:14.211Z,41344.00
2022-08-12T11:42:14.224Z,28224.00
2022-08-12T11:43:19.918Z,41856.00
2022-08-12T11:44:35.651Z,50048.00
2022-08-12T11:45:16.281Z,51264.00
2022-08-12T11:46:14.198Z,47552.00
2022-08-12T11:47:14.201Z,39840.00
2022-08-12T11:48:15.208Z,50176.00
2022-08-12T11:49:26.862Z,40288.00
2022-08-12T11:50:19.737Z,26720.00
2022-08-12T11:51:14.162Z,9704.00
2022-08-12T11:52:17.242Z,36192.00
2022-08-12T11:53:59.071Z,10328.00
2022-08-12T11:54:14.790Z,8460.00
2022-08-12T11:55:14.832Z,9324.00
2022-08-12T11:56:14.134Z,13216.00
2022-08-12T11:58:14.643Z,46848.00
2022-08-12T11:59:20.478Z,51744.00
2022-08-12T12:02:01.305Z,47104.00
2022-08-12T12:02:19.227Z,31328.00
2022-08-12T12:03:17.314Z,56064.00
2022-08-12T12:04:29.226Z,62528.00
2022-08-12T12:05:14.231Z,63200.00
2022-08-12T12:06:16.386Z,60480.00
2022-08-12T12:07:14.123Z,61728.00
2022-08-12T12:08:38.416Z,52064.00
2022-08-12T12:09:14.342Z,47392.00
2022-08-12T12:10:14.238Z,52832.00
2022-08-12T12:11:14.169Z,20384.00
2022-08-12T12:12:14.163Z,11888.00
2022-08-12T12:14:05.350Z,12476.00
2022-08-12T12:14:14.142Z,30496.00
2022-08-12T12:15:14.279Z,27232.00
2022-08-12T12:16:14.372Z,16448.00
2022-08-12T12:17:14.168Z,20960.00
2022-08-12T12:18:14.035Z,36832.00
2022-08-12T12:19:14.128Z,34912.00
2022-08-12T12:20:14.064Z,48384.00
2022-08-12T12:21:14.067Z,56032.00
2022-08-12T12:22:15.777Z,74304.00
2022-08-12T12:23:28.825Z,68128.00
2022-08-12T12:24:14.002Z,79104.00
2022-08-12T12:25:14.484Z,17184.00
2022-08-12T12:26:35.491Z,8716.00
2022-08-12T12:27:19.289Z,7912.00
2022-08-12T12:28:19.997Z,6596.00
2022-08-12T12:30:20.043Z,10600.00
2022-08-12T12:30:25.414Z,82336.00
2022-08-12T12:31:15.170Z,70912.00
2022-08-12T12:32:13.967Z,6448.00
2022-08-12T12:33:18.121Z,7680.00
2022-08-12T12:34:30.449Z,6196.00
2022-08-12T12:36:05.983Z,6516.00
2022-08-12T12:36:20.399Z,7004.00
2022-08-12T12:37:16.147Z,7264.00
2022-08-12T12:38:13.938Z,7976.00
2022-08-12T12:39:13.955Z,8316.00